sensor_id;sensor_type;location;lat;lon;timestamp;pressure;altitude;pressure_sealevel;temperature;humidity
58662;BME280;44432;49.786;22.760;2024-03-02T00:02:28;99082.98;;;6.80;85.48
58662;BME280;44432;49.786;22.760;2024-03-02T00:04:59;99081.95;;;6.79;85.66
58662;BME280;44432;49.786;22.760;2024-03-02T00:07:30;99085.59;;;6.79;85.51
58662;BME280;44432;49.786;22.760;2024-03-02T00:10:02;99082.47;;;6.77;85.62
58662;BME280;44432;49.786;22.760;2024-03-02T00:12:38;99083.56;;;6.79;85.22
58662;BME280;44432;49.786;22.760;2024-03-02T00:15:38;99084.38;;;6.77;85.44
58662;BME280;44432;49.786;22.760;2024-03-02T00:18:12;99082.91;;;6.77;85.79
58662;BME280;44432;49.786;22.760;2024-03-02T00:20:43;99075.64;;;6.76;85.88
58662;BME280;44432;49.786;22.760;2024-03-02T00:23:16;99077.33;;;6.74;85.77
58662;BME280;44432;49.786;22.760;2024-03-02T00:25:48;99077.49;;;6.74;85.67
58662;BME280;44432;49.786;22.760;2024-03-02T00:28:22;99071.83;;;6.73;85.69
58662;BME280;44432;49.786;22.760;2024-03-02T00:30:57;99064.16;;;6.73;85.85
58662;BME280;44432;49.786;22.760;2024-03-02T00:33:33;99063.39;;;6.72;85.79
58662;BME280;44432;49.786;22.760;2024-03-02T00:36:06;99055.52;;;6.72;85.63
58662;BME280;44432;49.786;22.760;2024-03-02T00:38:44;99057.27;;;6.72;85.88
58662;BME280;44432;49.786;22.760;2024-03-02T00:41:21;99048.98;;;6.71;85.76
58662;BME280;44432;49.786;22.760;2024-03-02T00:43:59;99040.48;;;6.69;85.89
58662;BME280;44432;49.786;22.760;2024-03-02T00:46:35;99040.77;;;6.70;85.54
58662;BME280;44432;49.786;22.760;2024-03-02T00:49:17;99036.04;;;6.68;85.47
58662;BME280;44432;49.786;22.760;2024-03-02T00:51:51;99035.02;;;6.67;85.91
58662;BME280;44432;49.786;22.760;2024-03-02T00:54:23;99030.18;;;6.65;85.94
58662;BME280;44432;49.786;22.760;2024-03-02T00:56:55;99035.58;;;6.64;85.93
58662;BME280;44432;49.786;22.760;2024-03-02T00:59:28;99032.02;;;6.62;85.85
58662;BME280;44432;49.786;22.760;2024-03-02T01:01:59;99027.48;;;6.59;85.79
58662;BME280;44432;49.786;22.760;2024-03-02T01:04:30;99029.31;;;6.56;85.89
58662;BME280;44432;49.786;22.760;2024-03-02T01:07:01;99029.75;;;6.55;85.72
58662;BME280;44432;49.786;22.760;2024-03-02T01:09:32;99031.91;;;6.52;86.07
58662;BME280;44432;49.786;22.760;2024-03-02T01:12:03;99034.81;;;6.52;85.87
58662;BME280;44432;49.786;22.760;2024-03-02T01:14:34;99026.29;;;6.50;85.98
58662;BME280;44432;49.786;22.760;2024-03-02T01:17:05;99030.36;;;6.50;86.17
58662;BME280;44432;49.786;22.760;2024-03-02T01:19:35;99032.90;;;6.49;86.02
58662;BME280;44432;49.786;22.760;2024-03-02T01:22:07;99028.82;;;6.48;86.43
58662;BME280;44432;49.786;22.760;2024-03-02T01:24:38;99027.56;;;6.47;86.16
58662;BME280;44432;49.786;22.760;2024-03-02T01:27:10;99029.65;;;6.46;86.31
58662;BME280;44432;49.786;22.760;2024-03-02T01:29:41;99024.70;;;6.43;86.08
58662;BME280;44432;49.786;22.760;2024-03-02T01:32:11;99018.33;;;6.43;86.50
58662;BME280;44432;49.786;22.760;2024-03-02T01:34:42;99025.87;;;6.42;86.66
58662;BME280;44432;49.786;22.760;2024-03-02T01:37:13;99020.46;;;6.42;86.62
58662;BME280;44432;49.786;22.760;2024-03-02T01:39:43;99010.45;;;6.41;86.62
58662;BME280;44432;49.786;22.760;2024-03-02T01:42:14;99012.39;;;6.40;86.67
58662;BME280;44432;49.786;22.760;2024-03-02T01:44:45;99007.48;;;6.37;86.61
58662;BME280;44432;49.786;22.760;2024-03-02T01:47:16;99010.96;;;6.39;86.34
58662;BME280;44432;49.786;22.760;2024-03-02T01:49:46;99010.40;;;6.39;86.43
58662;BME280;44432;49.786;22.760;2024-03-02T01:52:17;99011.25;;;6.39;86.57
58662;BME280;44432;49.786;22.760;2024-03-02T01:54:48;99005.56;;;6.38;86.87
58662;BME280;44432;49.786;22.760;2024-03-02T01:57:19;99002.42;;;6.40;86.98
58662;BME280;44432;49.786;22.760;2024-03-02T01:59:50;99003.27;;;6.41;86.70
58662;BME280;44432;49.786;22.760;2024-03-02T02:02:21;98999.35;;;6.40;86.70
58662;BME280;44432;49.786;22.760;2024-03-02T02:04:52;98998.79;;;6.41;86.95
58662;BME280;44432;49.786;22.760;2024-03-02T02:07:23;98996.45;;;6.41;86.95
58662;BME280;44432;49.786;22.760;2024-03-02T02:09:53;98997.39;;;6.42;87.00
58662;BME280;44432;49.786;22.760;2024-03-02T02:12:24;98995.69;;;6.42;87.14
58662;BME280;44432;49.786;22.760;2024-03-02T02:14:55;98996.75;;;6.43;87.02
58662;BME280;44432;49.786;22.760;2024-03-02T02:17:26;98995.02;;;6.44;86.78
58662;BME280;44432;49.786;22.760;2024-03-02T02:19:57;98990.88;;;6.45;86.98
58662;BME280;44432;49.786;22.760;2024-03-02T02:22:27;98977.88;;;6.44;87.05
58662;BME280;44432;49.786;22.760;2024-03-02T02:24:58;98971.11;;;6.45;86.84
58662;BME280;44432;49.786;22.760;2024-03-02T02:27:29;98965.50;;;6.46;86.98
58662;BME280;44432;49.786;22.760;2024-03-02T02:30:00;98970.71;;;6.46;86.99
58662;BME280;44432;49.786;22.760;2024-03-02T02:32:32;98970.55;;;6.46;87.11
58662;BME280;44432;49.786;22.760;2024-03-02T02:35:03;98974.05;;;6.46;86.73
58662;BME280;44432;49.786;22.760;2024-03-02T02:37:34;98973.48;;;6.46;86.90
58662;BME280;44432;49.786;22.760;2024-03-02T02:40:07;98969.51;;;6.47;86.99
58662;BME280;44432;49.786;22.760;2024-03-02T02:42:38;98970.77;;;6.48;87.12
58662;BME280;44432;49.786;22.760;2024-03-02T02:45:09;98967.89;;;6.47;87.30
58662;BME280;44432;49.786;22.760;2024-03-02T02:47:40;98961.61;;;6.49;87.12
58662;BME280;44432;49.786;22.760;2024-03-02T02:50:11;98959.48;;;6.49;86.94
58662;BME280;44432;49.786;22.760;2024-03-02T02:52:43;98958.73;;;6.48;86.91
58662;BME280;44432;49.786;22.760;2024-03-02T02:55:14;98956.96;;;6.48;87.05
58662;BME280;44432;49.786;22.760;2024-03-02T02:57:45;98952.05;;;6.48;86.96
58662;BME280;44432;49.786;22.760;2024-03-02T03:00:19;98955.84;;;6.49;86.99
58662;BME280;44432;49.786;22.760;2024-03-02T03:02:52;98961.23;;;6.49;87.27
58662;BME280;44432;49.786;22.760;2024-03-02T03:05:23;98966.62;;;6.50;87.11
58662;BME280;44432;49.786;22.760;2024-03-02T03:07:53;98973.33;;;6.51;87.21
58662;BME280;44432;49.786;22.760;2024-03-02T03:10:24;98976.15;;;6.53;87.22
58662;BME280;44432;49.786;22.760;2024-03-02T03:12:57;98977.70;;;6.55;87.32
58662;BME280;44432;49.786;22.760;2024-03-02T03:15:27;98970.20;;;6.57;87.14
58662;BME280;44432;49.786;22.760;2024-03-02T03:17:58;98970.93;;;6.58;87.06
58662;BME280;44432;49.786;22.760;2024-03-02T03:20:29;98970.09;;;6.59;87.04
58662;BME280;44432;49.786;22.760;2024-03-02T03:23:00;98964.96;;;6.58;86.95
58662;BME280;44432;49.786;22.760;2024-03-02T03:25:30;98963.11;;;6.59;86.95
58662;BME280;44432;49.786;22.760;2024-03-02T03:28:01;98956.90;;;6.59;86.99
58662;BME280;44432;49.786;22.760;2024-03-02T03:30:32;98958.27;;;6.59;86.87
58662;BME280;44432;49.786;22.760;2024-03-02T03:33:03;98959.40;;;6.59;87.04
58662;BME280;44432;49.786;22.760;2024-03-02T03:35:35;98958.43;;;6.60;86.91
58662;BME280;44432;49.786;22.760;2024-03-02T03:38:06;98957.23;;;6.60;86.88
58662;BME280;44432;49.786;22.760;2024-03-02T03:40:37;98955.20;;;6.61;87.29
58662;BME280;44432;49.786;22.760;2024-03-02T03:43:08;98955.02;;;6.62;87.36
58662;BME280;44432;49.786;22.760;2024-03-02T03:45:39;98959.66;;;6.64;87.11
58662;BME280;44432;49.786;22.760;2024-03-02T03:48:10;98952.65;;;6.65;87.41
58662;BME280;44432;49.786;22.760;2024-03-02T03:50:41;98949.67;;;6.67;87.16
58662;BME280;44432;49.786;22.760;2024-03-02T03:53:12;98947.48;;;6.67;87.21
58662;BME280;44432;49.786;22.760;2024-03-02T03:55:44;98949.19;;;6.68;87.11
58662;BME280;44432;49.786;22.760;2024-03-02T03:58:16;98954.00;;;6.69;87.15
58662;BME280;44432;49.786;22.760;2024-03-02T04:00:48;98954.89;;;6.69;86.99
58662;BME280;44432;49.786;22.760;2024-03-02T04:03:19;98949.30;;;6.67;86.99
58662;BME280;44432;49.786;22.760;2024-03-02T04:05:49;98947.33;;;6.66;86.62
58662;BME280;44432;49.786;22.760;2024-03-02T04:08:20;98947.77;;;6.67;86.92
58662;BME280;44432;49.786;22.760;2024-03-02T04:10:51;98946.65;;;6.67;86.73
58662;BME280;44432;49.786;22.760;2024-03-02T04:13:22;98943.66;;;6.69;87.00
58662;BME280;44432;49.786;22.760;2024-03-02T04:15:52;98944.60;;;6.70;87.06
58662;BME280;44432;49.786;22.760;2024-03-02T04:18:23;98949.29;;;6.70;87.06
58662;BME280;44432;49.786;22.760;2024-03-02T04:20:54;98953.96;;;6.70;86.93
58662;BME280;44432;49.786;22.760;2024-03-02T04:23:25;98951.14;;;6.70;86.82
58662;BME280;44432;49.786;22.760;2024-03-02T04:25:56;98952.88;;;6.71;87.16
58662;BME280;44432;49.786;22.760;2024-03-02T04:28:27;98951.42;;;6.68;87.02
58662;BME280;44432;49.786;22.760;2024-03-02T04:30:58;98950.11;;;6.67;86.77
58662;BME280;44432;49.786;22.760;2024-03-02T04:33:28;98950.52;;;6.67;87.00
58662;BME280;44432;49.786;22.760;2024-03-02T04:35:59;98950.02;;;6.67;86.88
58662;BME280;44432;49.786;22.760;2024-03-02T04:38:30;98948.09;;;6.66;86.82
58662;BME280;44432;49.786;22.760;2024-03-02T04:41:01;98945.52;;;6.65;87.15
58662;BME280;44432;49.786;22.760;2024-03-02T04:43:32;98943.93;;;6.65;87.20
58662;BME280;44432;49.786;22.760;2024-03-02T04:46:03;98948.21;;;6.66;87.15
58662;BME280;44432;49.786;22.760;2024-03-02T04:48:34;98946.13;;;6.67;87.63
58662;BME280;44432;49.786;22.760;2024-03-02T04:51:05;98946.89;;;6.68;86.68
58662;BME280;44432;49.786;22.760;2024-03-02T04:53:35;98948.25;;;6.67;86.90
58662;BME280;44432;49.786;22.760;2024-03-02T04:56:08;98946.96;;;6.67;86.85
58662;BME280;44432;49.786;22.760;2024-03-02T04:59:08;98941.48;;;6.67;87.06
58662;BME280;44432;49.786;22.760;2024-03-02T05:01:39;98944.83;;;6.67;87.00
58662;BME280;44432;49.786;22.760;2024-03-02T05:04:10;98949.06;;;6.67;86.92
58662;BME280;44432;49.786;22.760;2024-03-02T05:06:41;98947.13;;;6.68;87.18
58662;BME280;44432;49.786;22.760;2024-03-02T05:09:12;98951.81;;;6.68;86.89
58662;BME280;44432;49.786;22.760;2024-03-02T05:11:43;98958.67;;;6.68;87.14
58662;BME280;44432;49.786;22.760;2024-03-02T05:14:30;98957.86;;;6.67;86.84
58662;BME280;44432;49.786;22.760;2024-03-02T05:17:01;98958.79;;;6.67;86.87
58662;BME280;44432;49.786;22.760;2024-03-02T05:19:32;98958.30;;;6.66;86.82
58662;BME280;44432;49.786;22.760;2024-03-02T05:22:03;98956.73;;;6.66;87.10
58662;BME280;44432;49.786;22.760;2024-03-02T05:24:35;98956.94;;;6.67;86.92
58662;BME280;44432;49.786;22.760;2024-03-02T05:27:06;98956.05;;;6.67;87.04
58662;BME280;44432;49.786;22.760;2024-03-02T05:29:36;98957.83;;;6.67;86.88
58662;BME280;44432;49.786;22.760;2024-03-02T05:32:08;98960.86;;;6.68;87.26
58662;BME280;44432;49.786;22.760;2024-03-02T05:34:38;98965.66;;;6.69;87.01
58662;BME280;44432;49.786;22.760;2024-03-02T05:37:09;98970.95;;;6.69;86.96
58662;BME280;44432;49.786;22.760;2024-03-02T05:39:40;98969.61;;;6.68;86.84
58662;BME280;44432;49.786;22.760;2024-03-02T05:42:13;98966.91;;;6.68;86.93
58662;BME280;44432;49.786;22.760;2024-03-02T05:44:44;98971.46;;;6.67;87.07
58662;BME280;44432;49.786;22.760;2024-03-02T05:47:14;98973.81;;;6.68;86.99
58662;BME280;44432;49.786;22.760;2024-03-02T05:49:45;98976.60;;;6.70;86.78
58662;BME280;44432;49.786;22.760;2024-03-02T05:52:16;98981.62;;;6.71;86.77
58662;BME280;44432;49.786;22.760;2024-03-02T05:54:47;98981.63;;;6.73;87.03
58662;BME280;44432;49.786;22.760;2024-03-02T05:57:18;98990.55;;;6.74;87.11
58662;BME280;44432;49.786;22.760;2024-03-02T06:00:04;98993.75;;;6.77;87.05
58662;BME280;44432;49.786;22.760;2024-03-02T06:02:40;98990.98;;;6.78;86.90
58662;BME280;44432;49.786;22.760;2024-03-02T06:05:11;98986.73;;;6.79;86.95
58662;BME280;44432;49.786;22.760;2024-03-02T06:07:42;98990.39;;;6.82;87.14
58662;BME280;44432;49.786;22.760;2024-03-02T06:10:13;98987.01;;;6.84;87.00
58662;BME280;44432;49.786;22.760;2024-03-02T06:12:44;98993.88;;;6.86;86.95
58662;BME280;44432;49.786;22.760;2024-03-02T06:15:15;98988.59;;;6.88;86.86
58662;BME280;44432;49.786;22.760;2024-03-02T06:17:46;98988.04;;;6.90;86.79
58662;BME280;44432;49.786;22.760;2024-03-02T06:20:17;98985.59;;;6.93;86.69
58662;BME280;44432;49.786;22.760;2024-03-02T06:22:47;98980.91;;;6.95;86.90
58662;BME280;44432;49.786;22.760;2024-03-02T06:25:18;98984.36;;;6.97;86.88
58662;BME280;44432;49.786;22.760;2024-03-02T06:27:49;98984.77;;;7.00;86.95
58662;BME280;44432;49.786;22.760;2024-03-02T06:30:20;98982.77;;;7.02;86.81
58662;BME280;44432;49.786;22.760;2024-03-02T06:32:50;98994.48;;;7.05;87.04
58662;BME280;44432;49.786;22.760;2024-03-02T06:35:22;98987.50;;;7.09;86.81
58662;BME280;44432;49.786;22.760;2024-03-02T06:37:53;98986.46;;;7.11;86.92
58662;BME280;44432;49.786;22.760;2024-03-02T06:40:24;98987.08;;;7.12;86.35
58662;BME280;44432;49.786;22.760;2024-03-02T06:42:55;98991.77;;;7.15;86.55
58662;BME280;44432;49.786;22.760;2024-03-02T06:45:25;98994.36;;;7.16;86.68
58662;BME280;44432;49.786;22.760;2024-03-02T06:47:56;98994.08;;;7.19;86.89
58662;BME280;44432;49.786;22.760;2024-03-02T06:50:27;98992.08;;;7.22;86.57
58662;BME280;44432;49.786;22.760;2024-03-02T06:52:58;98995.88;;;7.25;86.59
58662;BME280;44432;49.786;22.760;2024-03-02T06:55:29;98993.33;;;7.29;86.21
58662;BME280;44432;49.786;22.760;2024-03-02T06:57:59;98988.27;;;7.30;86.17
58662;BME280;44432;49.786;22.760;2024-03-02T07:00:30;98995.11;;;7.35;86.14
58662;BME280;44432;49.786;22.760;2024-03-02T07:03:01;98996.04;;;7.38;86.12
58662;BME280;44432;49.786;22.760;2024-03-02T07:05:32;98988.77;;;7.39;85.82
58662;BME280;44432;49.786;22.760;2024-03-02T07:08:03;98991.56;;;7.41;85.85
58662;BME280;44432;49.786;22.760;2024-03-02T07:10:34;98988.17;;;7.41;85.53
58662;BME280;44432;49.786;22.760;2024-03-02T07:13:05;98991.11;;;7.40;85.30
58662;BME280;44432;49.786;22.760;2024-03-02T07:15:36;98991.11;;;7.39;85.65
58662;BME280;44432;49.786;22.760;2024-03-02T07:18:29;98991.89;;;7.38;85.59
58662;BME280;44432;49.786;22.760;2024-03-02T07:21:00;98992.97;;;7.36;85.52
58662;BME280;44432;49.786;22.760;2024-03-02T07:23:31;98988.92;;;7.38;85.64
58662;BME280;44432;49.786;22.760;2024-03-02T07:26:02;98982.91;;;7.41;85.48
58662;BME280;44432;49.786;22.760;2024-03-02T07:28:32;98981.67;;;7.44;85.58
58662;BME280;44432;49.786;22.760;2024-03-02T07:31:04;98982.81;;;7.50;85.72
58662;BME280;44432;49.786;22.760;2024-03-02T07:33:35;98988.92;;;7.57;85.59
58662;BME280;44432;49.786;22.760;2024-03-02T07:36:06;98991.69;;;7.64;85.48
58662;BME280;44432;49.786;22.760;2024-03-02T07:38:37;98991.98;;;7.71;85.42
58662;BME280;44432;49.786;22.760;2024-03-02T07:41:09;98987.57;;;7.75;85.45
58662;BME280;44432;49.786;22.760;2024-03-02T07:43:40;98991.79;;;7.82;84.97
58662;BME280;44432;49.786;22.760;2024-03-02T07:46:12;98987.54;;;7.84;84.74
58662;BME280;44432;49.786;22.760;2024-03-02T07:48:43;98990.33;;;7.88;85.14
58662;BME280;44432;49.786;22.760;2024-03-02T07:51:14;98996.33;;;7.94;84.66
58662;BME280;44432;49.786;22.760;2024-03-02T07:53:45;98990.50;;;7.97;84.65
58662;BME280;44432;49.786;22.760;2024-03-02T07:56:16;98995.72;;;8.00;84.40
58662;BME280;44432;49.786;22.760;2024-03-02T07:58:51;98998.09;;;7.99;84.13
58662;BME280;44432;49.786;22.760;2024-03-02T08:01:22;99000.80;;;8.00;84.27
58662;BME280;44432;49.786;22.760;2024-03-02T08:03:53;99004.41;;;8.00;83.82
58662;BME280;44432;49.786;22.760;2024-03-02T08:06:24;99006.07;;;8.01;84.18
58662;BME280;44432;49.786;22.760;2024-03-02T08:08:57;99001.05;;;8.03;83.99
58662;BME280;44432;49.786;22.760;2024-03-02T08:11:28;99005.86;;;8.05;84.03
58662;BME280;44432;49.786;22.760;2024-03-02T08:14:00;99007.16;;;8.08;84.08
58662;BME280;44432;49.786;22.760;2024-03-02T08:16:31;99016.02;;;8.10;83.88
58662;BME280;44432;49.786;22.760;2024-03-02T08:19:02;99017.31;;;8.10;83.87
58662;BME280;44432;49.786;22.760;2024-03-02T08:21:33;99025.52;;;8.07;83.64
58662;BME280;44432;49.786;22.760;2024-03-02T08:24:05;99024.30;;;8.05;83.53
58662;BME280;44432;49.786;22.760;2024-03-02T08:26:39;99025.31;;;8.00;83.32
58662;BME280;44432;49.786;22.760;2024-03-02T08:29:09;99023.38;;;7.96;83.37
58662;BME280;44432;49.786;22.760;2024-03-02T08:31:41;99021.46;;;7.93;83.46
58662;BME280;44432;49.786;22.760;2024-03-02T08:34:12;99023.17;;;7.92;83.85
58662;BME280;44432;49.786;22.760;2024-03-02T08:36:43;99033.73;;;7.91;83.73
58662;BME280;44432;49.786;22.760;2024-03-02T08:39:14;99042.01;;;7.86;83.52
58662;BME280;44432;49.786;22.760;2024-03-02T08:41:45;99044.66;;;7.82;83.79
58662;BME280;44432;49.786;22.760;2024-03-02T08:44:17;99037.23;;;7.78;83.27
58662;BME280;44432;49.786;22.760;2024-03-02T08:46:48;99036.98;;;7.76;83.67
58662;BME280;44432;49.786;22.760;2024-03-02T08:49:18;99040.50;;;7.78;83.92
58662;BME280;44432;49.786;22.760;2024-03-02T08:51:49;99036.50;;;7.80;84.31
58662;BME280;44432;49.786;22.760;2024-03-02T08:54:24;99031.80;;;7.81;84.36
58662;BME280;44432;49.786;22.760;2024-03-02T08:56:55;99027.08;;;7.85;84.43
58662;BME280;44432;49.786;22.760;2024-03-02T08:59:26;99030.04;;;7.86;84.22
58662;BME280;44432;49.786;22.760;2024-03-02T09:01:57;99029.80;;;7.87;84.37
58662;BME280;44432;49.786;22.760;2024-03-02T09:04:28;99024.30;;;7.89;84.56
58662;BME280;44432;49.786;22.760;2024-03-02T09:06:59;99028.95;;;7.91;84.45
58662;BME280;44432;49.786;22.760;2024-03-02T09:09:30;99027.73;;;7.91;84.19
58662;BME280;44432;49.786;22.760;2024-03-02T09:12:02;99036.96;;;7.94;84.40
58662;BME280;44432;49.786;22.760;2024-03-02T09:14:32;99036.92;;;7.96;84.56
58662;BME280;44432;49.786;22.760;2024-03-02T09:17:03;99041.21;;;7.98;84.34
58662;BME280;44432;49.786;22.760;2024-03-02T09:19:34;99042.70;;;7.99;84.25
58662;BME280;44432;49.786;22.760;2024-03-02T09:22:05;99037.94;;;8.04;84.16
58662;BME280;44432;49.786;22.760;2024-03-02T09:24:36;99036.60;;;8.10;84.46
58662;BME280;44432;49.786;22.760;2024-03-02T09:27:07;99040.61;;;8.18;84.39
58662;BME280;44432;49.786;22.760;2024-03-02T09:29:41;99041.45;;;8.25;83.92
58662;BME280;44432;49.786;22.760;2024-03-02T09:32:15;99035.71;;;8.31;83.76
58662;BME280;44432;49.786;22.760;2024-03-02T09:34:44;99037.65;;;8.36;83.55
58662;BME280;44432;49.786;22.760;2024-03-02T09:37:15;99035.02;;;8.40;83.49
58662;BME280;44432;49.786;22.760;2024-03-02T09:39:46;99036.87;;;8.47;83.70
58662;BME280;44432;49.786;22.760;2024-03-02T09:42:17;99032.94;;;8.53;83.60
58662;BME280;44432;49.786;22.760;2024-03-02T09:44:48;99035.80;;;8.61;83.40
58662;BME280;44432;49.786;22.760;2024-03-02T09:47:19;99038.82;;;8.65;83.36
58662;BME280;44432;49.786;22.760;2024-03-02T09:49:50;99037.70;;;8.75;83.21
58662;BME280;44432;49.786;22.760;2024-03-02T09:52:21;99028.46;;;8.82;82.84
58662;BME280;44432;49.786;22.760;2024-03-02T09:54:52;99024.46;;;8.88;82.91
58662;BME280;44432;49.786;22.760;2024-03-02T09:57:24;99025.62;;;8.95;82.58
58662;BME280;44432;49.786;22.760;2024-03-02T09:59:54;99026.90;;;9.00;82.31
58662;BME280;44432;49.786;22.760;2024-03-02T10:02:25;99025.35;;;9.02;81.90
58662;BME280;44432;49.786;22.760;2024-03-02T10:04:56;99026.40;;;9.06;82.00
58662;BME280;44432;49.786;22.760;2024-03-02T10:07:27;99027.23;;;9.10;81.81
58662;BME280;44432;49.786;22.760;2024-03-02T10:09:58;99028.88;;;9.13;81.56
58662;BME280;44432;49.786;22.760;2024-03-02T10:12:29;99026.69;;;9.13;81.35
58662;BME280;44432;49.786;22.760;2024-03-02T10:15:06;99026.67;;;9.16;81.40
58662;BME280;44432;49.786;22.760;2024-03-02T10:17:39;99021.28;;;9.18;81.41
58662;BME280;44432;49.786;22.760;2024-03-02T10:23:13;99027.10;;;9.22;81.02
58662;BME280;44432;49.786;22.760;2024-03-02T10:25:45;99021.16;;;9.17;80.79
58662;BME280;44432;49.786;22.760;2024-03-02T10:28:16;99027.48;;;9.17;80.91
58662;BME280;44432;49.786;22.760;2024-03-02T10:30:49;99029.34;;;9.18;80.90
58662;BME280;44432;49.786;22.760;2024-03-02T10:33:21;99031.67;;;9.21;81.02
58662;BME280;44432;49.786;22.760;2024-03-02T10:35:52;99036.28;;;9.25;80.96
58662;BME280;44432;49.786;22.760;2024-03-02T10:38:23;99038.83;;;9.29;80.83
58662;BME280;44432;49.786;22.760;2024-03-02T10:40:56;99035.23;;;9.31;80.82
58662;BME280;44432;49.786;22.760;2024-03-02T10:43:29;99035.77;;;9.33;80.70
58662;BME280;44432;49.786;22.760;2024-03-02T10:46:00;99036.89;;;9.35;80.58
58662;BME280;44432;49.786;22.760;2024-03-02T10:48:32;99036.73;;;9.37;80.62
58662;BME280;44432;49.786;22.760;2024-03-02T10:51:03;99035.05;;;9.40;80.75
58662;BME280;44432;49.786;22.760;2024-03-02T10:53:34;99035.71;;;9.44;81.01
58662;BME280;44432;49.786;22.760;2024-03-02T10:56:08;99033.19;;;9.47;80.76
58662;BME280;44432;49.786;22.760;2024-03-02T10:58:40;99029.48;;;9.48;80.72
58662;BME280;44432;49.786;22.760;2024-03-02T11:01:12;99031.20;;;9.54;80.41
58662;BME280;44432;49.786;22.760;2024-03-02T11:03:43;99029.39;;;9.59;80.52
58662;BME280;44432;49.786;22.760;2024-03-02T11:06:15;99027.94;;;9.64;80.70
58662;BME280;44432;49.786;22.760;2024-03-02T11:08:48;99025.88;;;9.70;80.50
58662;BME280;44432;49.786;22.760;2024-03-02T11:11:24;99026.20;;;9.77;80.72
58662;BME280;44432;49.786;22.760;2024-03-02T11:13:59;99024.41;;;9.84;80.35
58662;BME280;44432;49.786;22.760;2024-03-02T11:16:38;99021.91;;;9.87;80.00
58662;BME280;44432;49.786;22.760;2024-03-02T11:19:10;99017.99;;;9.90;79.85
58662;BME280;44432;49.786;22.760;2024-03-02T11:21:42;99025.85;;;9.91;79.68
58662;BME280;44432;49.786;22.760;2024-03-02T11:24:33;99022.21;;;9.95;79.83
58662;BME280;44432;49.786;22.760;2024-03-02T11:27:05;99023.98;;;9.98;79.97
58662;BME280;44432;49.786;22.760;2024-03-02T11:29:47;99019.60;;;10.02;80.09
58662;BME280;44432;49.786;22.760;2024-03-02T11:32:20;99017.63;;;10.06;79.72
58662;BME280;44432;49.786;22.760;2024-03-02T11:34:52;99014.33;;;10.07;79.48
58662;BME280;44432;49.786;22.760;2024-03-02T11:37:23;99017.42;;;10.06;79.43
58662;BME280;44432;49.786;22.760;2024-03-02T11:39:55;99015.78;;;10.03;79.33
58662;BME280;44432;49.786;22.760;2024-03-02T11:42:26;99016.84;;;10.03;79.33
58662;BME280;44432;49.786;22.760;2024-03-02T11:44:57;99013.83;;;10.04;79.69
58662;BME280;44432;49.786;22.760;2024-03-02T11:47:32;99015.58;;;10.08;79.51
58662;BME280;44432;49.786;22.760;2024-03-02T11:50:04;99020.12;;;10.09;79.25
58662;BME280;44432;49.786;22.760;2024-03-02T11:52:36;99023.33;;;10.09;78.89
58662;BME280;44432;49.786;22.760;2024-03-02T11:55:09;99020.92;;;10.10;79.13
58662;BME280;44432;49.786;22.760;2024-03-02T11:57:42;99021.63;;;10.12;78.94
58662;BME280;44432;49.786;22.760;2024-03-02T12:00:19;99017.06;;;10.16;78.94
58662;BME280;44432;49.786;22.760;2024-03-02T12:03:01;99015.39;;;10.20;78.78
58662;BME280;44432;49.786;22.760;2024-03-02T12:05:32;99019.33;;;10.25;78.61
58662;BME280;44432;49.786;22.760;2024-03-02T12:08:06;99022.48;;;10.32;78.81
58662;BME280;44432;49.786;22.760;2024-03-02T12:10:37;99019.34;;;10.37;78.69
58662;BME280;44432;49.786;22.760;2024-03-02T12:13:09;99020.80;;;10.43;78.62
58662;BME280;44432;49.786;22.760;2024-03-02T12:15:40;99016.38;;;10.47;78.39
58662;BME280;44432;49.786;22.760;2024-03-02T12:18:11;99016.27;;;10.49;78.34
58662;BME280;44432;49.786;22.760;2024-03-02T12:20:42;99017.57;;;10.53;78.25
58662;BME280;44432;49.786;22.760;2024-03-02T12:23:13;99014.23;;;10.58;78.14
58662;BME280;44432;49.786;22.760;2024-03-02T12:25:44;99014.84;;;10.63;77.99
58662;BME280;44432;49.786;22.760;2024-03-02T12:28:15;99011.63;;;10.67;77.88
58662;BME280;44432;49.786;22.760;2024-03-02T12:30:47;99009.31;;;10.70;77.72
58662;BME280;44432;49.786;22.760;2024-03-02T12:33:19;99005.95;;;10.74;77.82
58662;BME280;44432;49.786;22.760;2024-03-02T12:35:53;99004.29;;;10.77;77.48
58662;BME280;44432;49.786;22.760;2024-03-02T12:38:23;99009.77;;;10.77;77.14
58662;BME280;44432;49.786;22.760;2024-03-02T12:40:56;99010.38;;;10.74;76.91
58662;BME280;44432;49.786;22.760;2024-03-02T12:43:31;99011.89;;;10.68;76.64
58662;BME280;44432;49.786;22.760;2024-03-02T12:46:02;99011.44;;;10.65;76.92
58662;BME280;44432;49.786;22.760;2024-03-02T12:48:33;99013.08;;;10.64;76.94
58662;BME280;44432;49.786;22.760;2024-03-02T12:51:05;99016.48;;;10.61;77.01
58662;BME280;44432;49.786;22.760;2024-03-02T12:53:36;99017.80;;;10.59;76.88
58662;BME280;44432;49.786;22.760;2024-03-02T12:56:09;99019.81;;;10.56;76.92
58662;BME280;44432;49.786;22.760;2024-03-02T12:58:41;99021.79;;;10.55;76.85
58662;BME280;44432;49.786;22.760;2024-03-02T13:01:14;99022.14;;;10.55;76.81
58662;BME280;44432;49.786;22.760;2024-03-02T13:03:50;99019.84;;;10.55;76.90
58662;BME280;44432;49.786;22.760;2024-03-02T13:06:21;99022.86;;;10.56;76.65
58662;BME280;44432;49.786;22.760;2024-03-02T13:08:52;99019.27;;;10.57;76.67
58662;BME280;44432;49.786;22.760;2024-03-02T13:11:23;99018.14;;;10.58;76.37
58662;BME280;44432;49.786;22.760;2024-03-02T13:13:54;99015.52;;;10.56;75.94
58662;BME280;44432;49.786;22.760;2024-03-02T13:16:25;99013.36;;;10.52;75.72
58662;BME280;44432;49.786;22.760;2024-03-02T13:18:56;99012.06;;;10.47;75.55
58662;BME280;44432;49.786;22.760;2024-03-02T13:21:27;99012.80;;;10.46;75.81
58662;BME280;44432;49.786;22.760;2024-03-02T13:23:58;99015.94;;;10.46;75.51
58662;BME280;44432;49.786;22.760;2024-03-02T13:26:29;99013.80;;;10.41;75.24